sensor_id;sensor_type;location;lat;lon;timestamp;temperature;humidity
52979;DHT22;63430;53.186;6.598;2023-10-09T00:00:12;13.70;99.90
52979;DHT22;63430;53.186;6.598;2023-10-09T00:02:34;13.70;99.90
52979;DHT22;63430;53.186;6.598;2023-10-09T00:04:40;13.70;99.90
52979;DHT22;63430;53.186;6.598;2023-10-09T00:06:48;13.80;99.90
52979;DHT22;63430;53.186;6.598;2023-10-09T00:08:51;13.70;99.90
52979;DHT22;63430;53.186;6.598;2023-10-09T00:10:58;13.70;99.90
52979;DHT22;63430;53.186;6.598;2023-10-09T00:13:10;13.70;99.90
52979;DHT22;63430;53.186;6.598;2023-10-09T00:15:13;13.70;99.90
52979;DHT22;63430;53.186;6.598;2023-10-09T00:17:18;13.70;99.90
52979;DHT22;63430;53.186;6.598;2023-10-09T00:19:24;13.70;99.90
52979;DHT22;63430;53.186;6.598;2023-10-09T00:21:37;13.70;99.90
52979;DHT22;63430;53.186;6.598;2023-10-09T00:23:40;13.60;99.90
52979;DHT22;63430;53.186;6.598;2023-10-09T00:25:48;13.80;99.90
52979;DHT22;63430;53.186;6.598;2023-10-09T00:28:07;13.70;99.90
52979;DHT22;63430;53.186;6.598;2023-10-09T00:30:14;13.70;99.90
52979;DHT22;63430;53.186;6.598;2023-10-09T00:32:20;13.70;99.90
52979;DHT22;63430;53.186;6.598;2023-10-09T00:34:28;13.70;99.90
52979;DHT22;63430;53.186;6.598;2023-10-09T00:36:31;13.70;99.90
52979;DHT22;63430;53.186;6.598;2023-10-09T00:38:38;13.70;99.90
52979;DHT22;63430;53.186;6.598;2023-10-09T00:40:49;13.70;99.90
52979;DHT22;63430;53.186;6.598;2023-10-09T00:43:00;13.70;99.90
52979;DHT22;63430;53.186;6.598;2023-10-09T00:45:09;13.70;99.90
52979;DHT22;63430;53.186;6.598;2023-10-09T00:47:15;13.70;99.90
52979;DHT22;63430;53.186;6.598;2023-10-09T00:49:37;13.80;99.90
52979;DHT22;63430;53.186;6.598;2023-10-09T00:51:49;13.70;99.90
52979;DHT22;63430;53.186;6.598;2023-10-09T00:54:04;13.80;99.90
52979;DHT22;63430;53.186;6.598;2023-10-09T00:56:10;13.70;99.90
52979;DHT22;63430;53.186;6.598;2023-10-09T00:58:22;13.80;99.90
52979;DHT22;63430;53.186;6.598;2023-10-09T01:00:34;13.70;99.90
52979;DHT22;63430;53.186;6.598;2023-10-09T01:02:48;13.70;99.90
52979;DHT22;63430;53.186;6.598;2023-10-09T01:05:05;13.80;99.90
52979;DHT22;63430;53.186;6.598;2023-10-09T01:07:21;13.80;99.90
52979;DHT22;63430;53.186;6.598;2023-10-09T01:09:30;13.80;99.90
52979;DHT22;63430;53.186;6.598;2023-10-09T01:11:39;13.80;99.90
52979;DHT22;63430;53.186;6.598;2023-10-09T01:14:06;13.80;99.90
52979;DHT22;63430;53.186;6.598;2023-10-09T01:16:11;13.80;99.90
52979;DHT22;63430;53.186;6.598;2023-10-09T01:18:18;13.80;99.90
52979;DHT22;63430;53.186;6.598;2023-10-09T01:20:22;13.80;99.90
52979;DHT22;63430;53.186;6.598;2023-10-09T01:22:32;13.70;99.90
52979;DHT22;63430;53.186;6.598;2023-10-09T01:24:37;13.80;99.90
52979;DHT22;63430;53.186;6.598;2023-10-09T01:26:42;13.80;99.90
52979;DHT22;63430;53.186;6.598;2023-10-09T01:28:49;13.80;99.90
52979;DHT22;63430;53.186;6.598;2023-10-09T01:30:51;13.80;99.90
52979;DHT22;63430;53.186;6.598;2023-10-09T01:32:54;13.80;99.90
52979;DHT22;63430;53.186;6.598;2023-10-09T01:35:00;13.80;99.90
52979;DHT22;63430;53.186;6.598;2023-10-09T01:37:02;13.80;99.90
52979;DHT22;63430;53.186;6.598;2023-10-09T01:39:08;13.80;99.90
52979;DHT22;63430;53.186;6.598;2023-10-09T01:41:26;13.80;99.90
52979;DHT22;63430;53.186;6.598;2023-10-09T01:43:29;14.00;99.90
52979;DHT22;63430;53.186;6.598;2023-10-09T01:45:34;13.80;99.90
52979;DHT22;63430;53.186;6.598;2023-10-09T01:47:45;13.80;99.90
52979;DHT22;63430;53.186;6.598;2023-10-09T01:49:54;13.80;99.90
52979;DHT22;63430;53.186;6.598;2023-10-09T01:52:00;13.80;99.90
52979;DHT22;63430;53.186;6.598;2023-10-09T01:54:09;13.80;99.90
52979;DHT22;63430;53.186;6.598;2023-10-09T01:56:18;13.90;99.90
52979;DHT22;63430;53.186;6.598;2023-10-09T01:58:24;13.80;99.90
52979;DHT22;63430;53.186;6.598;2023-10-09T02:00:27;13.80;99.90
52979;DHT22;63430;53.186;6.598;2023-10-09T02:02:32;13.80;99.90
52979;DHT22;63430;53.186;6.598;2023-10-09T02:04:38;13.80;99.90
52979;DHT22;63430;53.186;6.598;2023-10-09T02:06:42;13.80;99.90
52979;DHT22;63430;53.186;6.598;2023-10-09T02:08:45;13.80;99.90
52979;DHT22;63430;53.186;6.598;2023-10-09T02:10:52;13.80;99.90
52979;DHT22;63430;53.186;6.598;2023-10-09T02:12:59;13.80;99.90
52979;DHT22;63430;53.186;6.598;2023-10-09T02:15:06;13.80;99.90
52979;DHT22;63430;53.186;6.598;2023-10-09T02:17:18;13.80;99.90
52979;DHT22;63430;53.186;6.598;2023-10-09T02:19:20;13.80;99.90
52979;DHT22;63430;53.186;6.598;2023-10-09T02:21:36;13.80;99.90
52979;DHT22;63430;53.186;6.598;2023-10-09T02:23:47;13.80;99.90
52979;DHT22;63430;53.186;6.598;2023-10-09T02:25:56;13.80;99.90
52979;DHT22;63430;53.186;6.598;2023-10-09T02:27:58;13.80;99.90
52979;DHT22;63430;53.186;6.598;2023-10-09T02:30:06;13.80;99.90
52979;DHT22;63430;53.186;6.598;2023-10-09T02:32:19;13.80;99.90
52979;DHT22;63430;53.186;6.598;2023-10-09T02:34:28;13.80;99.90
52979;DHT22;63430;53.186;6.598;2023-10-09T02:36:32;13.80;99.90
52979;DHT22;63430;53.186;6.598;2023-10-09T02:38:37;13.80;99.90
52979;DHT22;63430;53.186;6.598;2023-10-09T02:40:43;13.80;99.90
52979;DHT22;63430;53.186;6.598;2023-10-09T02:43:04;13.80;99.90
52979;DHT22;63430;53.186;6.598;2023-10-09T02:45:10;13.80;99.90
52979;DHT22;63430;53.186;6.598;2023-10-09T02:47:19;13.80;99.90
52979;DHT22;63430;53.186;6.598;2023-10-09T02:49:42;13.80;99.90
52979;DHT22;63430;53.186;6.598;2023-10-09T02:51:45;13.70;99.90
52979;DHT22;63430;53.186;6.598;2023-10-09T02:53:56;13.70;99.90
52979;DHT22;63430;53.186;6.598;2023-10-09T02:56:00;13.70;99.90
52979;DHT22;63430;53.186;6.598;2023-10-09T02:58:14;13.70;99.90
52979;DHT22;63430;53.186;6.598;2023-10-09T03:00:26;13.70;99.90
52979;DHT22;63430;53.186;6.598;2023-10-09T03:02:36;13.80;99.90
52979;DHT22;63430;53.186;6.598;2023-10-09T03:04:42;13.70;99.90
52979;DHT22;63430;53.186;6.598;2023-10-09T03:06:45;13.70;99.90
52979;DHT22;63430;53.186;6.598;2023-10-09T03:08:54;13.70;99.90
52979;DHT22;63430;53.186;6.598;2023-10-09T03:10:57;13.80;99.90
52979;DHT22;63430;53.186;6.598;2023-10-09T03:13:02;13.80;99.90
52979;DHT22;63430;53.186;6.598;2023-10-09T03:15:08;13.80;99.90
52979;DHT22;63430;53.186;6.598;2023-10-09T03:17:14;13.80;99.90
52979;DHT22;63430;53.186;6.598;2023-10-09T03:19:17;13.80;99.90
52979;DHT22;63430;53.186;6.598;2023-10-09T03:21:20;14.00;99.90
52979;DHT22;63430;53.186;6.598;2023-10-09T03:23:23;13.80;99.90
52979;DHT22;63430;53.186;6.598;2023-10-09T03:25:25;13.90;99.90
52979;DHT22;63430;53.186;6.598;2023-10-09T03:27:29;13.90;99.90
52979;DHT22;63430;53.186;6.598;2023-10-09T03:29:32;13.90;99.90
52979;DHT22;63430;53.186;6.598;2023-10-09T03:31:37;13.90;99.90
52979;DHT22;63430;53.186;6.598;2023-10-09T03:33:42;14.00;99.90
52979;DHT22;63430;53.186;6.598;2023-10-09T03:35:45;14.00;99.90
52979;DHT22;63430;53.186;6.598;2023-10-09T03:37:48;14.00;99.90
52979;DHT22;63430;53.186;6.598;2023-10-09T03:39:50;14.00;99.90
52979;DHT22;63430;53.186;6.598;2023-10-09T03:41:57;14.00;99.90
52979;DHT22;63430;53.186;6.598;2023-10-09T03:44:01;14.10;99.90
52979;DHT22;63430;53.186;6.598;2023-10-09T03:46:04;14.10;99.90
52979;DHT22;63430;53.186;6.598;2023-10-09T03:48:07;14.20;99.90
52979;DHT22;63430;53.186;6.598;2023-10-09T03:50:31;14.20;99.90
52979;DHT22;63430;53.186;6.598;2023-10-09T03:52:45;14.20;99.90
52979;DHT22;63430;53.186;6.598;2023-10-09T03:54:48;14.20;99.90
52979;DHT22;63430;53.186;6.598;2023-10-09T03:56:51;14.30;99.90
52979;DHT22;63430;53.186;6.598;2023-10-09T03:58:59;14.30;99.90
52979;DHT22;63430;53.186;6.598;2023-10-09T04:01:07;14.30;99.90
52979;DHT22;63430;53.186;6.598;2023-10-09T04:03:12;14.30;99.90
52979;DHT22;63430;53.186;6.598;2023-10-09T04:05:16;14.30;99.90
52979;DHT22;63430;53.186;6.598;2023-10-09T04:07:22;14.40;99.90
52979;DHT22;63430;53.186;6.598;2023-10-09T04:09:25;14.40;99.90
52979;DHT22;63430;53.186;6.598;2023-10-09T04:11:27;14.40;99.90
52979;DHT22;63430;53.186;6.598;2023-10-09T04:13:31;14.40;99.90
52979;DHT22;63430;53.186;6.598;2023-10-09T04:15:37;14.40;99.90
52979;DHT22;63430;53.186;6.598;2023-10-09T04:17:39;14.40;99.90
52979;DHT22;63430;53.186;6.598;2023-10-09T04:19:45;14.40;99.90
52979;DHT22;63430;53.186;6.598;2023-10-09T04:22:01;14.40;99.90
52979;DHT22;63430;53.186;6.598;2023-10-09T04:24:11;14.50;99.90
52979;DHT22;63430;53.186;6.598;2023-10-09T04:26:14;14.50;99.90
52979;DHT22;63430;53.186;6.598;2023-10-09T04:28:17;14.60;99.90
52979;DHT22;63430;53.186;6.598;2023-10-09T04:30:24;14.70;99.90
52979;DHT22;63430;53.186;6.598;2023-10-09T04:32:28;14.60;99.90
52979;DHT22;63430;53.186;6.598;2023-10-09T04:34:31;14.70;99.90
52979;DHT22;63430;53.186;6.598;2023-10-09T04:36:51;14.70;99.90
52979;DHT22;63430;53.186;6.598;2023-10-09T04:39:02;14.70;99.90
52979;DHT22;63430;53.186;6.598;2023-10-09T04:41:08;14.80;99.90
52979;DHT22;63430;53.186;6.598;2023-10-09T04:43:12;14.80;99.90
52979;DHT22;63430;53.186;6.598;2023-10-09T04:45:22;14.90;99.90
52979;DHT22;63430;53.186;6.598;2023-10-09T04:47:45;14.90;99.90
52979;DHT22;63430;53.186;6.598;2023-10-09T04:50:01;15.00;99.90
52979;DHT22;63430;53.186;6.598;2023-10-09T04:52:06;15.00;99.90
52979;DHT22;63430;53.186;6.598;2023-10-09T04:54:20;15.10;99.90
52979;DHT22;63430;53.186;6.598;2023-10-09T04:56:44;15.10;99.90
52979;DHT22;63430;53.186;6.598;2023-10-09T04:58:55;15.20;99.90
52979;DHT22;63430;53.186;6.598;2023-10-09T05:01:05;15.20;99.90
52979;DHT22;63430;53.186;6.598;2023-10-09T05:03:15;15.20;99.90
52979;DHT22;63430;53.186;6.598;2023-10-09T05:05:30;15.30;99.90
52979;DHT22;63430;53.186;6.598;2023-10-09T05:07:46;15.30;99.90
52979;DHT22;63430;53.186;6.598;2023-10-09T05:09:57;15.30;99.90
52979;DHT22;63430;53.186;6.598;2023-10-09T05:12:13;15.30;99.90
52979;DHT22;63430;53.186;6.598;2023-10-09T05:14:18;15.40;99.90
52979;DHT22;63430;53.186;6.598;2023-10-09T05:16:29;15.40;99.90
52979;DHT22;63430;53.186;6.598;2023-10-09T05:18:31;15.40;99.90
52979;DHT22;63430;53.186;6.598;2023-10-09T05:20:39;15.40;99.90
52979;DHT22;63430;53.186;6.598;2023-10-09T05:22:57;15.40;99.90
52979;DHT22;63430;53.186;6.598;2023-10-09T05:25:00;15.40;99.90
52979;DHT22;63430;53.186;6.598;2023-10-09T05:27:03;15.40;99.90
52979;DHT22;63430;53.186;6.598;2023-10-09T05:29:24;15.40;99.90
52979;DHT22;63430;53.186;6.598;2023-10-09T05:31:36;15.40;99.90
52979;DHT22;63430;53.186;6.598;2023-10-09T05:33:58;15.40;99.90
52979;DHT22;63430;53.186;6.598;2023-10-09T05:36:04;15.40;99.90
52979;DHT22;63430;53.186;6.598;2023-10-09T05:38:19;15.50;99.90
52979;DHT22;63430;53.186;6.598;2023-10-09T05:40:26;15.50;99.90
52979;DHT22;63430;53.186;6.598;2023-10-09T05:42:34;15.50;99.90
52979;DHT22;63430;53.186;6.598;2023-10-09T05:44:42;15.50;99.90
52979;DHT22;63430;53.186;6.598;2023-10-09T05:47:03;15.50;99.90
52979;DHT22;63430;53.186;6.598;2023-10-09T05:49:26;15.50;99.90
52979;DHT22;63430;53.186;6.598;2023-10-09T05:51:48;15.60;99.90
52979;DHT22;63430;53.186;6.598;2023-10-09T05:53:56;15.60;99.90
52979;DHT22;63430;53.186;6.598;2023-10-09T05:56:18;15.60;99.90
52979;DHT22;63430;53.186;6.598;2023-10-09T05:58:41;15.60;99.90
52979;DHT22;63430;53.186;6.598;2023-10-09T06:01:19;15.50;99.90
52979;DHT22;63430;53.186;6.598;2023-10-09T06:03:43;15.60;99.90
52979;DHT22;63430;53.186;6.598;2023-10-09T06:05:57;15.60;99.90
52979;DHT22;63430;53.186;6.598;2023-10-09T06:07:59;15.60;99.90
52979;DHT22;63430;53.186;6.598;2023-10-09T06:10:09;15.60;99.90
52979;DHT22;63430;53.186;6.598;2023-10-09T06:12:22;15.70;99.90
52979;DHT22;63430;53.186;6.598;2023-10-09T06:14:55;15.70;99.90
52979;DHT22;63430;53.186;6.598;2023-10-09T06:17:24;15.70;99.90
52979;DHT22;63430;53.186;6.598;2023-10-09T06:19:27;15.70;99.90
52979;DHT22;63430;53.186;6.598;2023-10-09T06:21:30;15.70;99.90
52979;DHT22;63430;53.186;6.598;2023-10-09T06:23:42;15.70;99.90
52979;DHT22;63430;53.186;6.598;2023-10-09T06:26:12;15.70;99.90
52979;DHT22;63430;53.186;6.598;2023-10-09T06:28:26;15.70;99.90
52979;DHT22;63430;53.186;6.598;2023-10-09T06:30:35;15.70;99.90
52979;DHT22;63430;53.186;6.598;2023-10-09T06:32:41;15.80;99.90
52979;DHT22;63430;53.186;6.598;2023-10-09T06:35:02;15.80;99.90
52979;DHT22;63430;53.186;6.598;2023-10-09T06:37:24;15.80;99.90
52979;DHT22;63430;53.186;6.598;2023-10-09T06:39:26;15.80;99.90
52979;DHT22;63430;53.186;6.598;2023-10-09T06:41:48;15.80;99.90
52979;DHT22;63430;53.186;6.598;2023-10-09T06:44:12;15.80;99.90
52979;DHT22;63430;53.186;6.598;2023-10-09T06:46:35;15.80;99.90
52979;DHT22;63430;53.186;6.598;2023-10-09T06:48:48;15.80;99.90
52979;DHT22;63430;53.186;6.598;2023-10-09T06:51:14;15.80;99.90
52979;DHT22;63430;53.186;6.598;2023-10-09T06:53:29;15.80;99.90
52979;DHT22;63430;53.186;6.598;2023-10-09T06:55:52;15.80;99.90
52979;DHT22;63430;53.186;6.598;2023-10-09T06:57:54;15.80;99.90
52979;DHT22;63430;53.186;6.598;2023-10-09T06:59:57;15.80;99.90
52979;DHT22;63430;53.186;6.598;2023-10-09T07:02:18;15.90;99.90
52979;DHT22;63430;53.186;6.598;2023-10-09T07:04:31;15.90;99.90
52979;DHT22;63430;53.186;6.598;2023-10-09T07:06:34;16.00;99.90
52979;DHT22;63430;53.186;6.598;2023-10-09T07:08:39;15.80;99.90
52979;DHT22;63430;53.186;6.598;2023-10-09T07:11:00;15.80;99.90
52979;DHT22;63430;53.186;6.598;2023-10-09T07:13:35;15.80;99.90
52979;DHT22;63430;53.186;6.598;2023-10-09T07:15:42;15.80;99.90
52979;DHT22;63430;53.186;6.598;2023-10-09T07:18:04;15.80;99.90
52979;DHT22;63430;53.186;6.598;2023-10-09T07:20:24;15.80;99.90
52979;DHT22;63430;53.186;6.598;2023-10-09T07:22:39;15.90;99.90
52979;DHT22;63430;53.186;6.598;2023-10-09T07:24:42;15.80;99.90
52979;DHT22;63430;53.186;6.598;2023-10-09T07:26:52;15.80;99.90
52979;DHT22;63430;53.186;6.598;2023-10-09T07:28:57;15.90;99.90
52979;DHT22;63430;53.186;6.598;2023-10-09T07:31:19;15.80;99.90
52979;DHT22;63430;53.186;6.598;2023-10-09T07:33:29;15.90;99.90
52979;DHT22;63430;53.186;6.598;2023-10-09T07:35:53;15.90;99.90
52979;DHT22;63430;53.186;6.598;2023-10-09T07:37:56;15.90;99.90
52979;DHT22;63430;53.186;6.598;2023-10-09T07:39:58;15.90;99.90
52979;DHT22;63430;53.186;6.598;2023-10-09T07:42:04;15.90;99.90
52979;DHT22;63430;53.186;6.598;2023-10-09T07:44:36;15.90;99.90
52979;DHT22;63430;53.186;6.598;2023-10-09T07:46:41;16.00;99.90
52979;DHT22;63430;53.186;6.598;2023-10-09T07:49:15;15.90;99.90
52979;DHT22;63430;53.186;6.598;2023-10-09T07:51:29;15.90;99.90
52979;DHT22;63430;53.186;6.598;2023-10-09T07:53:35;16.00;99.90
52979;DHT22;63430;53.186;6.598;2023-10-09T07:55:46;16.00;99.90
52979;DHT22;63430;53.186;6.598;2023-10-09T07:57:57;16.00;99.90
52979;DHT22;63430;53.186;6.598;2023-10-09T08:00:13;15.90;99.90
52979;DHT22;63430;53.186;6.598;2023-10-09T08:02:35;15.90;99.90
52979;DHT22;63430;53.186;6.598;2023-10-09T08:04:40;16.00;99.90
52979;DHT22;63430;53.186;6.598;2023-10-09T08:06:54;16.00;99.90
52979;DHT22;63430;53.186;6.598;2023-10-09T08:09:20;16.00;99.90
52979;DHT22;63430;53.186;6.598;2023-10-09T08:11:42;16.00;99.90
52979;DHT22;63430;53.186;6.598;2023-10-09T08:13:48;16.00;99.90
52979;DHT22;63430;53.186;6.598;2023-10-09T08:16:12;16.00;99.90
52979;DHT22;63430;53.186;6.598;2023-10-09T08:18:24;16.00;99.90
52979;DHT22;63430;53.186;6.598;2023-10-09T08:20:34;16.00;99.90
52979;DHT22;63430;53.186;6.598;2023-10-09T08:22:58;16.00;99.90
52979;DHT22;63430;53.186;6.598;2023-10-09T08:25:00;16.00;99.90
52979;DHT22;63430;53.186;6.598;2023-10-09T08:27:04;16.10;99.90
52979;DHT22;63430;53.186;6.598;2023-10-09T08:29:33;16.10;99.90
52979;DHT22;63430;53.186;6.598;2023-10-09T08:31:36;16.10;99.90
52979;DHT22;63430;53.186;6.598;2023-10-09T08:33:59;16.20;99.90
52979;DHT22;63430;53.186;6.598;2023-10-09T08:36:07;16.10;99.90
52979;DHT22;63430;53.186;6.598;2023-10-09T08:38:14;16.10;99.90
52979;DHT22;63430;53.186;6.598;2023-10-09T08:40:18;16.10;99.90
52979;DHT22;63430;53.186;6.598;2023-10-09T08:42:24;16.10;99.90
52979;DHT22;63430;53.186;6.598;2023-10-09T08:44:28;16.10;99.90
52979;DHT22;63430;53.186;6.598;2023-10-09T08:46:35;16.10;99.90
52979;DHT22;63430;53.186;6.598;2023-10-09T08:48:39;16.10;99.90
52979;DHT22;63430;53.186;6.598;2023-10-09T08:50:42;16.30;99.90
52979;DHT22;63430;53.186;6.598;2023-10-09T08:52:46;16.20;99.90
52979;DHT22;63430;53.186;6.598;2023-10-09T08:54:51;16.20;99.90
52979;DHT22;63430;53.186;6.598;2023-10-09T08:56:56;16.20;99.90
52979;DHT22;63430;53.186;6.598;2023-10-09T08:58:59;16.20;99.90
52979;DHT22;63430;53.186;6.598;2023-10-09T09:01:02;16.20;99.90
52979;DHT22;63430;53.186;6.598;2023-10-09T09:03:04;16.30;99.90
52979;DHT22;63430;53.186;6.598;2023-10-09T09:05:17;16.20;99.90
52979;DHT22;63430;53.186;6.598;2023-10-09T09:07:28;16.30;99.90
52979;DHT22;63430;53.186;6.598;2023-10-09T09:09:34;16.30;99.90
52979;DHT22;63430;53.186;6.598;2023-10-09T09:11:43;16.30;99.90
52979;DHT22;63430;53.186;6.598;2023-10-09T09:14:01;16.40;99.90
52979;DHT22;63430;53.186;6.598;2023-10-09T09:16:17;16.40;99.90
52979;DHT22;63430;53.186;6.598;2023-10-09T09:18:20;16.30;99.90
52979;DHT22;63430;53.186;6.598;2023-10-09T09:20:25;16.40;99.90
52979;DHT22;63430;53.186;6.598;2023-10-09T09:22:52;16.40;99.90
52979;DHT22;63430;53.186;6.598;2023-10-09T09:24:58;16.30;99.90
52979;DHT22;63430;53.186;6.598;2023-10-09T09:27:14;16.40;99.90
52979;DHT22;63430;53.186;6.598;2023-10-09T09:29:23;16.30;99.90
52979;DHT22;63430;53.186;6.598;2023-10-09T09:31:26;16.40;99.90
52979;DHT22;63430;53.186;6.598;2023-10-09T09:33:29;16.40;99.90
52979;DHT22;63430;53.186;6.598;2023-10-09T09:35:31;16.40;99.90
52979;DHT22;63430;53.186;6.598;2023-10-09T09:37:34;16.40;99.90
52979;DHT22;63430;53.186;6.598;2023-10-09T09:39:55;16.40;99.90
52979;DHT22;63430;53.186;6.598;2023-10-09T09:41:58;16.50;99.90
52979;DHT22;63430;53.186;6.598;2023-10-09T09:44:10;16.40;99.90
52979;DHT22;63430;53.186;6.598;2023-10-09T09:46:18;16.40;99.90
52979;DHT22;63430;53.186;6.598;2023-10-09T09:48:25;16.50;99.90
52979;DHT22;63430;53.186;6.598;2023-10-09T09:50:28;16.50;99.90
52979;DHT22;63430;53.186;6.598;2023-10-09T09:52:31;16.50;99.90
52979;DHT22;63430;53.186;6.598;2023-10-09T09:54:41;16.60;99.90
52979;DHT22;63430;53.186;6.598;2023-10-09T09:56:45;16.60;99.90
52979;DHT22;63430;53.186;6.598;2023-10-09T09:58:54;16.60;99.90
52979;DHT22;63430;53.186;6.598;2023-10-09T10:01:04;16.60;99.90
52979;DHT22;63430;53.186;6.598;2023-10-09T10:03:19;16.70;99.90
52979;DHT22;63430;53.186;6.598;2023-10-09T10:05:25;16.60;99.90
52979;DHT22;63430;53.186;6.598;2023-10-09T10:07:33;16.70;99.90
52979;DHT22;63430;53.186;6.598;2023-10-09T10:09:47;16.70;99.90
52979;DHT22;63430;53.186;6.598;2023-10-09T10:11:57;16.70;99.90
52979;DHT22;63430;53.186;6.598;2023-10-09T10:14:06;16.70;99.90
52979;DHT22;63430;53.186;6.598;2023-10-09T10:16:16;16.70;99.90
52979;DHT22;63430;53.186;6.598;2023-10-09T10:18:23;16.70;99.90
52979;DHT22;63430;53.186;6.598;2023-10-09T10:20:26;16.70;99.90
52979;DHT22;63430;53.186;6.598;2023-10-09T10:22:29;16.70;99.90
52979;DHT22;63430;53.186;6.598;2023-10-09T10:24:50;16.70;99.90
52979;DHT22;63430;53.186;6.598;2023-10-09T10:27:15;16.70;99.90
52979;DHT22;63430;53.186;6.598;2023-10-09T10:29:27;16.70;99.90
52979;DHT22;63430;53.186;6.598;2023-10-09T10:31:57;16.70;99.90
52979;DHT22;63430;53.186;6.598;2023-10-09T10:34:03;16.70;99.90
52979;DHT22;63430;53.186;6.598;2023-10-09T10:36:09;16.70;99.90
52979;DHT22;63430;53.186;6.598;2023-10-09T10:38:25;16.70;99.90
52979;DHT22;63430;53.186;6.598;2023-10-09T10:40:35;16.80;99.90
52979;DHT22;63430;53.186;6.598;2023-10-09T10:42:47;16.70;99.90
52979;DHT22;63430;53.186;6.598;2023-10-09T10:45:17;16.80;99.90
52979;DHT22;63430;53.186;6.598;2023-10-09T10:47:39;16.80;99.90
52979;DHT22;63430;53.186;6.598;2023-10-09T10:49:43;16.80;99.90
52979;DHT22;63430;53.186;6.598;2023-10-09T10:51:47;16.80;99.90
52979;DHT22;63430;53.186;6.598;2023-10-09T10:54:05;16.80;99.90
52979;DHT22;63430;53.186;6.598;2023-10-09T10:56:26;16.80;99.90
52979;DHT22;63430;53.186;6.598;2023-10-09T10:58:38;16.80;99.90
52979;DHT22;63430;53.186;6.598;2023-10-09T11:00:41;16.80;99.90
52979;DHT22;63430;53.186;6.598;2023-10-09T11:03:04;16.80;99.90
52979;DHT22;63430;53.186;6.598;2023-10-09T11:05:31;16.80;99.90
52979;DHT22;63430;53.186;6.598;2023-10-09T11:07:42;16.80;99.90
52979;DHT22;63430;53.186;6.598;2023-10-09T11:09:46;16.80;99.90
52979;DHT22;63430;53.186;6.598;2023-10-09T11:12:08;16.70;99.90
52979;DHT22;63430;53.186;6.598;2023-10-09T11:14:24;16.70;99.90
52979;DHT22;63430;53.186;6.598;2023-10-09T11:16:27;16.70;99.90
52979;DHT22;63430;53.186;6.598;2023-10-09T11:18:49;16.70;99.90
52979;DHT22;63430;53.186;6.598;2023-10-09T11:20:53;16.80;99.90
52979;DHT22;63430;53.186;6.598;2023-10-09T11:23:01;16.70;99.90
52979;DHT22;63430;53.186;6.598;2023-10-09T11:25:13;16.70;99.90
52979;DHT22;63430;53.186;6.598;2023-10-09T11:27:20;16.60;99.90
52979;DHT22;63430;53.186;6.598;2023-10-09T11:29:27;16.60;99.90
52979;DHT22;63430;53.186;6.598;2023-10-09T11:32:03;16.60;99.90
52979;DHT22;63430;53.186;6.598;2023-10-09T11:34:20;16.60;99.90
52979;DHT22;63430;53.186;6.598;2023-10-09T11:36:36;16.60;99.90
52979;DHT22;63430;53.186;6.598;2023-10-09T11:38:39;16.60;99.90
52979;DHT22;63430;53.186;6.598;2023-10-09T11:40:48;16.70;99.90
52979;DHT22;63430;53.186;6.598;2023-10-09T11:43:00;16.70;99.90
52979;DHT22;63430;53.186;6.598;2023-10-09T11:45:03;16.80;99.90
52979;DHT22;63430;53.186;6.598;2023-10-09T11:47:34;16.80;99.90
52979;DHT22;63430;53.186;6.598;2023-10-09T11:49:50;16.80;99.90
52979;DHT22;63430;53.186;6.598;2023-10-09T11:52:07;16.80;99.90
52979;DHT22;63430;53.186;6.598;2023-10-09T11:54:29;16.80;99.90
52979;DHT22;63430;53.186;6.598;2023-10-09T11:56:32;16.80;99.90
52979;DHT22;63430;53.186;6.598;2023-10-09T11:58:35;16.70;99.90
52979;DHT22;63430;53.186;6.598;2023-10-09T12:00:43;16.70;99.90
52979;DHT22;63430;53.186;6.598;2023-10-09T12:02:49;16.70;99.90
52979;DHT22;63430;53.186;6.598;2023-10-09T12:04:54;16.70;99.90
52979;DHT22;63430;53.186;6.598;2023-10-09T12:06:59;16.70;99.90
52979;DHT22;63430;53.186;6.598;2023-10-09T12:09:11;16.70;99.90
52979;DHT22;63430;53.186;6.598;2023-10-09T12:11:19;16.80;99.90
52979;DHT22;63430;53.186;6.598;2023-10-09T12:13:34;16.80;99.90
52979;DHT22;63430;53.186;6.598;2023-10-09T12:15:37;16.70;99.90
52979;DHT22;63430;53.186;6.598;2023-10-09T12:17:42;16.70;99.90
52979;DHT22;63430;53.186;6.598;2023-10-09T12:19:47;16.70;99.90
52979;DHT22;63430;53.186;6.598;2023-10-09T12:21:52;16.70;99.90
52979;DHT22;63430;53.186;6.598;2023-10-09T12:23:55;16.70;99.90
52979;DHT22;63430;53.186;6.598;2023-10-09T12:26:04;16.80;99.90
52979;DHT22;63430;53.186;6.598;2023-10-09T12:28:07;16.70;99.90
52979;DHT22;63430;53.186;6.598;2023-10-09T12:30:14;16.80;99.90
52979;DHT22;63430;53.186;6.598;2023-10-09T12:32:17;16.80;99.90
52979;DHT22;63430;53.186;6.598;2023-10-09T12:34:23;16.80;99.90
52979;DHT22;63430;53.186;6.598;2023-10-09T12:36:29;17.20;99.90
52979;DHT22;63430;53.186;6.598;2023-10-09T12:38:34;16.90;99.90
52979;DHT22;63430;53.186;6.598;2023-10-09T12:40:37;17.00;99.90
52979;DHT22;63430;53.186;6.598;2023-10-09T12:42:41;17.00;99.90
52979;DHT22;63430;53.186;6.598;2023-10-09T12:44:44;17.00;99.90
52979;DHT22;63430;53.186;6.598;2023-10-09T12:46:47;16.90;99.90
52979;DHT22;63430;53.186;6.598;2023-10-09T12:48:55;16.90;99.90
52979;DHT22;63430;53.186;6.598;2023-10-09T12:50:57;17.00;99.90
52979;DHT22;63430;53.186;6.598;2023-10-09T12:53:00;16.90;99.90
52979;DHT22;63430;53.186;6.598;2023-10-09T12:55:12;17.30;99.90
52979;DHT22;63430;53.186;6.598;2023-10-09T12:57:22;17.00;99.90
52979;DHT22;63430;53.186;6.598;2023-10-09T12:59:26;17.00;99.90
52979;DHT22;63430;53.186;6.598;2023-10-09T13:01:28;17.00;99.90
52979;DHT22;63430;53.186;6.598;2023-10-09T13:03:34;17.00;99.90
52979;DHT22;63430;53.186;6.598;2023-10-09T13:05:40;17.00;99.90
52979;DHT22;63430;53.186;6.598;2023-10-09T13:07:55;17.00;99.90
52979;DHT22;63430;53.186;6.598;2023-10-09T13:09:58;17.00;99.90
52979;DHT22;63430;53.186;6.598;2023-10-09T13:12:18;17.00;99.90
52979;DHT22;63430;53.186;6.598;2023-10-09T13:14:21;17.00;99.90
52979;DHT22;63430;53.186;6.598;2023-10-09T13:16:24;17.00;99.90
52979;DHT22;63430;53.186;6.598;2023-10-09T13:18:27;17.00;99.90
52979;DHT22;63430;53.186;6.598;2023-10-09T13:20:30;17.00;99.90
52979;DHT22;63430;53.186;6.598;2023-10-09T13:22:33;17.10;99.90
52979;DHT22;63430;53.186;6.598;2023-10-09T13:24:35;17.10;99.90
52979;DHT22;63430;53.186;6.598;2023-10-09T13:26:41;17.10;99.90
52979;DHT22;63430;53.186;6.598;2023-10-09T13:28:49;17.10;99.90
52979;DHT22;63430;53.186;6.598;2023-10-09T13:30:52;17.10;99.90
52979;DHT22;63430;53.186;6.598;2023-10-09T13:32:54;17.20;99.90
52979;DHT22;63430;53.186;6.598;2023-10-09T13:34:58;17.10;99.90
52979;DHT22;63430;53.186;6.598;2023-10-09T13:37:04;17.20;99.90
52979;DHT22;63430;53.186;6.598;2023-10-09T13:39:13;17.20;99.90